Time,TemperatureF,DewpointF,PressureIn,WindDirection,WindDirectionDegrees,WindSpeedMPH,WindSpeedGustMPH,Humidity,HourlyPrecipIn,Conditions,Clouds,dailyrainin,SoftwareType,DateUTC
2013-12-06 00:00:00,62.2,46.8,30.09,SSE,161,0.0,0.0,57,0.00,,---,0.00,VWS V14.01,2013-12-06 05:00:00,
2013-12-06 00:01:00,62.2,46.8,30.09,SSE,161,0.0,0.0,57,0.00,,---,0.00,VWS V14.01,2013-12-06 05:01:00,
2013-12-06 00:02:00,62.2,46.8,30.09,SSE,161,0.0,0.0,57,0.00,,---,0.00,VWS V14.01,2013-12-06 05:02:00,
2013-12-06 00:07:00,62.1,46.7,30.09,SSE,161,0.0,0.0,57,0.00,,---,0.00,VWS V14.01,2013-12-06 05:07:00,
2013-12-06 00:12:00,62.1,46.7,30.09,SSE,161,0.0,0.0,57,0.00,,---,0.00,VWS V14.01,2013-12-06 05:12:00,
2013-12-06 00:17:00,61.9,46.5,30.09,SSE,161,0.0,0.0,57,0.00,,---,0.00,VWS V14.01,2013-12-06 05:17:00,
2013-12-06 00:22:00,61.9,46.5,30.09,SSE,162,0.0,0.0,57,0.00,,---,0.00,VWS V14.01,2013-12-06 05:22:00,
2013-12-06 00:27:00,61.7,46.3,30.09,SSE,161,0.0,0.0,57,0.00,,---,0.00,VWS V14.01,2013-12-06 05:27:00,
2013-12-06 00:32:00,61.7,46.3,30.09,SSE,161,0.0,0.0,57,0.00,,---,0.00,VWS V14.01,2013-12-06 05:32:00,
2013-12-06 00:37:00,61.7,46.3,30.09,SSE,161,0.0,0.0,57,0.00,,---,0.00,VWS V14.01,2013-12-06 05:37:00,
2013-12-06 00:42:00,61.5,46.2,30.09,SSE,161,0.0,0.0,57,0.00,,---,0.00,VWS V14.01,2013-12-06 05:42:00,
2013-12-06 00:47:00,61.5,46.6,30.09,SSE,161,0.0,0.0,58,0.00,,---,0.00,VWS V14.01,2013-12-06 05:47:00,
2013-12-06 00:52:00,61.3,46.5,30.06,SSE,162,0.0,0.0,58,0.00,,---,0.00,VWS V14.01,2013-12-06 05:52:00,
2013-12-06 00:57:00,61.3,46.5,30.06,SSE,162,0.0,0.0,58,0.00,,---,0.00,VWS V14.01,2013-12-06 05:57:00,
2013-12-06 01:02:00,61.2,46.3,30.06,SSE,161,0.0,0.0,58,0.00,,---,0.00,VWS V14.01,2013-12-06 06:02:00,
2013-12-06 01:07:00,61.2,46.3,30.06,SSE,161,0.0,0.0,58,0.00,,---,0.00,VWS V14.01,2013-12-06 06:07:00,
2013-12-06 01:12:00,61.0,46.1,30.06,SSE,161,0.0,0.0,58,0.00,,---,0.00,VWS V14.01,2013-12-06 06:12:00,
2013-12-06 01:17:00,61.0,46.1,30.06,SSE,161,0.0,0.0,58,0.00,,---,0.00,VWS V14.01,2013-12-06 06:17:00,
2013-12-06 01:22:00,60.8,46.0,30.06,SSE,161,0.0,0.0,58,0.00,,---,0.00,VWS V14.01,2013-12-06 06:22:00,
2013-12-06 01:27:00,60.8,46.0,30.06,SSE,162,0.0,0.0,58,0.00,,---,0.00,VWS V14.01,2013-12-06 06:27:00,
2013-12-06 01:32:00,60.8,46.0,30.06,SSE,161,0.0,0.0,58,0.00,,---,0.00,VWS V14.01,2013-12-06 06:32:00,
2013-12-06 01:37:00,60.6,46.2,30.06,SSE,162,0.0,0.0,59,0.00,,---,0.00,VWS V14.01,2013-12-06 06:37:00,
2013-12-06 01:42:00,60.6,46.2,30.06,SSE,161,0.0,0.0,59,0.00,,---,0.00,VWS V14.01,2013-12-06 06:42:00,
2013-12-06 01:47:00,60.6,46.2,30.06,SSE,161,0.0,0.0,59,0.00,,---,0.00,VWS V14.01,2013-12-06 06:47:00,
2013-12-06 01:52:00,60.4,46.1,30.06,SSE,161,0.0,0.0,59,0.00,,---,0.00,VWS V14.01,2013-12-06 06:52:00,
2013-12-06 01:57:00,60.4,46.1,30.06,SSE,161,0.0,0.0,59,0.00,,---,0.00,VWS V14.01,2013-12-06 06:57:00,
2013-12-06 02:02:00,60.4,46.1,30.06,SSE,161,0.0,0.0,59,0.00,,---,0.00,VWS V14.01,2013-12-06 07:02:00,
2013-12-06 02:07:00,60.4,46.1,30.06,SSE,161,0.0,0.0,59,0.00,,---,0.00,VWS V14.01,2013-12-06 07:07:00,
2013-12-06 02:12:00,60.4,46.1,30.06,SSE,161,0.0,0.0,59,0.00,,---,0.00,VWS V14.01,2013-12-06 07:12:00,
2013-12-06 02:17:00,60.4,46.1,30.06,SSE,161,0.0,0.0,59,0.00,,---,0.00,VWS V14.01,2013-12-06 07:17:00,
2013-12-06 02:22:00,60.3,46.3,30.06,SSE,161,0.0,0.0,60,0.00,,---,0.00,VWS V14.01,2013-12-06 07:22:00,
2013-12-06 02:27:00,60.3,46.3,30.06,SSE,161,0.0,0.0,60,0.00,,---,0.00,VWS V14.01,2013-12-06 07:27:00,
2013-12-06 02:32:00,60.3,46.3,30.06,SSE,161,0.0,0.0,60,0.00,,---,0.00,VWS V14.01,2013-12-06 07:32:00,
2013-12-06 02:37:00,60.1,46.2,30.06,SSE,161,0.0,0.0,60,0.00,,---,0.00,VWS V14.01,2013-12-06 07:37:00,
2013-12-06 02:42:00,60.1,46.2,30.06,SSE,161,0.0,0.0,60,0.00,,---,0.00,VWS V14.01,2013-12-06 07:42:00,
2013-12-06 02:47:00,60.1,46.2,30.06,SSE,161,0.0,0.0,60,0.00,,---,0.00,VWS V14.01,2013-12-06 07:47:00,
2013-12-06 02:52:00,60.1,46.2,30.06,SSE,161,0.0,0.0,60,0.00,,---,0.00,VWS V14.01,2013-12-06 07:52:00,
2013-12-06 02:57:00,59.9,46.0,30.06,SSE,162,0.0,0.0,60,0.00,,---,0.00,VWS V14.01,2013-12-06 07:57:00,
2013-12-06 03:02:00,59.9,46.0,30.06,SSE,161,0.0,0.0,60,0.00,,---,0.00,VWS V14.01,2013-12-06 08:02:00,
2013-12-06 03:07:00,59.9,46.0,30.06,SSE,161,0.0,0.0,60,0.00,,---,0.00,VWS V14.01,2013-12-06 08:07:00,
2013-12-06 03:12:00,59.9,46.4,30.06,SSE,161,0.0,0.0,61,0.00,,---,0.00,VWS V14.01,2013-12-06 08:12:00,
2013-12-06 03:17:00,59.7,46.3,30.06,SSE,161,0.0,0.0,61,0.00,,---,0.00,VWS V14.01,2013-12-06 08:17:00,
2013-12-06 03:22:00,59.7,46.3,30.06,SSE,162,0.0,0.0,61,0.00,,---,0.00,VWS V14.01,2013-12-06 08:22:00,
2013-12-06 03:27:00,59.7,46.3,30.06,SSE,161,0.0,0.0,61,0.00,,---,0.00,VWS V14.01,2013-12-06 08:27:00,
2013-12-06 03:32:00,59.7,46.3,30.06,SSE,161,0.0,0.0,61,0.00,,---,0.00,VWS V14.01,2013-12-06 08:32:00,
2013-12-06 03:37:00,59.7,46.3,30.06,SSE,161,0.0,0.0,61,0.00,,---,0.00,VWS V14.01,2013-12-06 08:37:00,
2013-12-06 03:42:00,59.7,46.3,30.06,SSE,161,0.0,0.0,61,0.00,,---,0.00,VWS V14.01,2013-12-06 08:42:00,
2013-12-06 03:47:00,59.7,46.3,30.06,SSE,161,0.0,0.0,61,0.00,,---,0.00,VWS V14.01,2013-12-06 08:47:00,
2013-12-06 03:52:00,59.5,46.1,30.06,SSE,161,0.0,0.0,61,0.00,,---,0.00,VWS V14.01,2013-12-06 08:52:00,
2013-12-06 03:57:00,59.5,46.1,30.06,SSE,161,0.0,0.0,61,0.00,,---,0.00,VWS V14.01,2013-12-06 08:57:00,
2013-12-06 04:02:00,59.5,46.1,30.06,SSE,161,0.0,0.0,61,0.00,,---,0.00,VWS V14.01,2013-12-06 09:02:00,
2013-12-06 04:07:00,59.5,46.5,30.06,SSE,161,0.0,0.0,62,0.00,,---,0.00,VWS V14.01,2013-12-06 09:07:00,
2013-12-06 04:12:00,59.4,46.3,30.06,SSE,161,0.0,0.0,62,0.00,,---,0.00,VWS V14.01,2013-12-06 09:12:00,
2013-12-06 04:17:00,59.4,46.3,30.06,SSE,161,0.0,0.0,62,0.00,,---,0.00,VWS V14.01,2013-12-06 09:17:00,
2013-12-06 04:22:00,59.4,46.3,30.06,SSE,161,0.0,0.0,62,0.00,,---,0.00,VWS V14.01,2013-12-06 09:22:00,
2013-12-06 04:27:00,59.4,46.3,30.06,SSE,161,0.0,0.0,62,0.00,,---,0.00,VWS V14.01,2013-12-06 09:27:00,
2013-12-06 04:32:00,59.4,46.3,30.06,SSE,161,0.0,0.0,62,0.00,,---,0.00,VWS V14.01,2013-12-06 09:32:00,
2013-12-06 04:37:00,59.4,46.3,30.06,SSE,161,0.0,0.0,62,0.00,,---,0.00,VWS V14.01,2013-12-06 09:37:00,
2013-12-06 04:42:00,59.4,46.3,30.06,SSE,161,0.0,0.0,62,0.00,,---,0.00,VWS V14.01,2013-12-06 09:42:00,
2013-12-06 04:47:00,59.4,46.3,30.06,SSE,161,0.0,0.0,62,0.00,,---,0.00,VWS V14.01,2013-12-06 09:47:00,
2013-12-06 04:52:00,59.2,46.2,30.06,SSE,161,0.0,0.0,62,0.00,,---,0.00,VWS V14.01,2013-12-06 09:52:00,
2013-12-06 04:57:00,59.2,46.6,30.06,SSE,161,0.0,0.0,63,0.00,,---,0.00,VWS V14.01,2013-12-06 09:57:00,
2013-12-06 05:02:00,59.2,46.6,30.06,SSE,161,0.0,0.0,63,0.00,,---,0.00,VWS V14.01,2013-12-06 10:02:00,
2013-12-06 05:07:00,59.2,46.6,30.06,SSE,161,0.0,0.0,63,0.00,,---,0.00,VWS V14.01,2013-12-06 10:07:00,
2013-12-06 05:12:00,59.2,46.6,30.06,SSE,161,0.0,0.0,63,0.00,,---,0.00,VWS V14.01,2013-12-06 10:12:00,
2013-12-06 05:17:00,59.2,46.6,30.06,SSE,161,0.0,0.0,63,0.00,,---,0.00,VWS V14.01,2013-12-06 10:17:00,
2013-12-06 05:22:00,59.2,46.6,30.06,SSE,161,0.0,0.0,63,0.00,,---,0.00,VWS V14.01,2013-12-06 10:22:00,
2013-12-06 05:27:00,59.2,46.6,30.06,SSE,161,0.0,0.0,63,0.00,,---,0.00,VWS V14.01,2013-12-06 10:27:00,
2013-12-06 05:32:00,59.0,46.4,30.06,SSE,161,0.0,0.0,63,0.00,,---,0.00,VWS V14.01,2013-12-06 10:32:00,
2013-12-06 05:37:00,59.0,46.4,30.06,SSE,161,0.0,0.0,63,0.00,,---,0.00,VWS V14.01,2013-12-06 10:37:00,
2013-12-06 05:42:00,59.0,46.4,30.06,SSE,161,0.0,0.0,63,0.00,,---,0.00,VWS V14.01,2013-12-06 10:42:00,
2013-12-06 05:47:00,59.0,46.4,30.06,SSE,161,0.0,0.0,63,0.00,,---,0.00,VWS V14.01,2013-12-06 10:47:00,
2013-12-06 05:52:00,59.0,46.8,30.06,SSE,161,0.0,0.0,64,0.00,,---,0.00,VWS V14.01,2013-12-06 10:52:00,
2013-12-06 05:57:00,59.0,46.8,30.06,SSE,161,0.0,0.0,64,0.00,,---,0.00,VWS V14.01,2013-12-06 10:57:00,
2013-12-06 06:02:00,59.0,46.8,30.06,SSE,161,0.0,0.0,64,0.00,,---,0.00,VWS V14.01,2013-12-06 11:02:00,
2013-12-06 06:07:00,59.2,47.0,30.06,SSE,161,0.0,0.0,64,0.00,,---,0.00,VWS V14.01,2013-12-06 11:07:00,
2013-12-06 06:12:00,59.2,47.0,30.06,SSE,162,0.0,0.0,64,0.00,,---,0.00,VWS V14.01,2013-12-06 11:12:00,
2013-12-06 06:17:00,59.4,47.2,30.06,SSE,161,0.0,0.0,64,0.00,,---,0.00,VWS V14.01,2013-12-06 11:17:00,
2013-12-06 06:22:00,59.4,47.2,30.06,SSE,161,0.0,0.0,64,0.00,,---,0.00,VWS V14.01,2013-12-06 11:22:00,
2013-12-06 06:27:00,59.4,47.2,30.06,SSE,161,0.0,0.0,64,0.00,,---,0.00,VWS V14.01,2013-12-06 11:27:00,
2013-12-06 06:32:00,59.5,47.4,30.06,SSE,161,0.0,0.0,64,0.00,,---,0.00,VWS V14.01,2013-12-06 11:32:00,
2013-12-06 06:37:00,59.5,47.8,30.06,SSE,161,0.0,0.0,65,0.00,,---,0.00,VWS V14.01,2013-12-06 11:37:00,
2013-12-06 06:42:00,59.7,48.0,30.06,SSE,161,0.0,0.0,65,0.00,,---,0.00,VWS V14.01,2013-12-06 11:42:00,
2013-12-06 06:47:00,59.7,48.0,30.06,SSE,161,0.0,0.0,65,0.00,,---,0.00,VWS V14.01,2013-12-06 11:47:00,
2013-12-06 06:52:00,59.9,48.1,30.09,SSE,161,0.0,0.0,65,0.00,,---,0.00,VWS V14.01,2013-12-06 11:52:00,
2013-12-06 06:57:00,59.9,48.1,30.09,SSE,161,0.0,0.0,65,0.00,,---,0.00,VWS V14.01,2013-12-06 11:57:00,
2013-12-06 07:02:00,59.7,48.0,30.09,SSE,161,0.0,0.0,65,0.00,,---,0.00,VWS V14.01,2013-12-06 12:02:00,
2013-12-06 07:07:00,59.7,48.0,30.06,SSE,161,0.0,0.0,65,0.00,,---,0.00,VWS V14.01,2013-12-06 12:07:00,
2013-12-06 07:12:00,59.7,48.0,30.06,SSE,161,0.0,0.0,65,0.00,,---,0.00,VWS V14.01,2013-12-06 12:12:00,
2013-12-06 07:17:00,59.7,48.0,30.06,SSE,161,0.0,0.0,65,0.00,,---,0.00,VWS V14.01,2013-12-06 12:17:00,
2013-12-06 07:22:00,59.7,48.0,30.06,SSE,161,0.0,0.0,65,0.00,,---,0.00,VWS V14.01,2013-12-06 12:22:00,
2013-12-06 07:27:00,59.5,47.8,30.06,SSE,161,0.0,0.0,65,0.00,,---,0.00,VWS V14.01,2013-12-06 12:27:00,
2013-12-06 07:32:00,59.5,47.8,30.06,SSE,161,0.0,0.0,65,0.00,,---,0.00,VWS V14.01,2013-12-06 12:32:00,
2013-12-06 07:37:00,59.5,47.8,30.06,SSE,161,0.0,0.0,65,0.00,,---,0.00,VWS V14.01,2013-12-06 12:37:00,
2013-12-06 07:42:00,59.7,48.0,30.06,SSE,161,0.0,0.0,65,0.00,,---,0.00,VWS V14.01,2013-12-06 12:42:00,
2013-12-06 07:47:00,59.9,48.1,30.06,SSE,161,0.0,0.0,65,0.00,,---,0.00,VWS V14.01,2013-12-06 12:47:00,
2013-12-06 07:52:00,59.9,48.1,30.06,SSE,161,0.0,0.0,65,0.00,,---,0.00,VWS V14.01,2013-12-06 12:52:00,
2013-12-06 07:57:00,60.1,48.7,30.06,SSE,161,0.0,0.0,66,0.00,,---,0.00,VWS V14.01,2013-12-06 12:57:00,
2013-12-06 08:02:00,60.3,48.9,30.06,SSE,166,0.0,0.0,66,0.00,,---,0.00,VWS V14.01,2013-12-06 13:02:00,
2013-12-06 08:07:00,60.4,49.0,30.06,South,182,0.0,0.0,66,0.00,,---,0.00,VWS V14.01,2013-12-06 13:07:00,
2013-12-06 08:12:00,62.1,52.2,30.06,SSW,198,0.0,0.0,70,0.00,,---,0.00,VWS V14.01,2013-12-06 13:12:00,
2013-12-06 08:17:00,63.1,52.8,30.06,South,169,0.0,0.0,69,0.00,,---,0.00,VWS V14.01,2013-12-06 13:17:00,
2013-12-06 08:22:00,64.2,54.6,30.06,SSW,196,0.0,0.0,71,0.00,,---,0.00,VWS V14.01,2013-12-06 13:22:00,
2013-12-06 08:28:00,65.5,57.0,30.06,SSE,155,2.7,3.1,74,0.00,,---,0.00,VWS V14.01,2013-12-06 13:28:00,
2013-12-06 08:33:00,66.4,59.3,30.06,ESE,123,0.0,2.7,78,0.00,,---,0.00,VWS V14.01,2013-12-06 13:33:00,
2013-12-06 08:38:00,67.1,60.4,30.06,SW,225,0.0,0.0,79,0.00,,---,0.00,VWS V14.01,2013-12-06 13:38:00,
2013-12-06 08:43:00,67.3,58.7,30.06,SSE,167,2.7,2.7,74,0.00,,---,0.00,VWS V14.01,2013-12-06 13:43:00,
2013-12-06 08:48:00,67.6,58.7,30.06,WSW,237,0.0,0.0,73,0.00,,---,0.00,VWS V14.01,2013-12-06 13:48:00,
2013-12-06 08:53:00,68.2,60.7,30.06,SSE,164,0.0,0.0,77,0.00,,---,0.00,VWS V14.01,2013-12-06 13:53:00,
2013-12-06 08:58:00,68.5,60.3,30.06,South,169,3.6,3.6,75,0.00,,---,0.00,VWS V14.01,2013-12-06 13:58:00,
2013-12-06 09:03:00,68.9,60.3,30.06,SSW,196,0.0,0.0,74,0.00,,---,0.00,VWS V14.01,2013-12-06 14:03:00,
2013-12-06 09:08:00,69.3,61.8,30.09,SSW,207,2.7,4.9,77,0.00,,---,0.00,VWS V14.01,2013-12-06 14:08:00,
2013-12-06 09:13:00,69.6,61.7,30.09,SSE,151,3.1,4.0,76,0.00,,---,0.00,VWS V14.01,2013-12-06 14:13:00,
2013-12-06 09:18:00,70.0,61.7,30.09,West,262,3.1,3.1,75,0.00,,---,0.00,VWS V14.01,2013-12-06 14:18:00,
2013-12-06 09:23:00,70.7,64.2,30.09,NE,39,0.0,0.0,80,0.00,,---,0.00,VWS V14.01,2013-12-06 14:23:00,
2013-12-06 09:28:00,71.4,64.6,30.09,SE,144,6.3,6.3,79,0.00,,---,0.00,VWS V14.01,2013-12-06 14:28:00,
2013-12-06 09:33:00,72.1,66.7,30.09,SW,228,0.0,0.0,83,0.00,,---,0.00,VWS V14.01,2013-12-06 14:33:00,
2013-12-06 09:38:00,72.9,66.3,30.09,SSW,202,3.6,3.6,80,0.00,,---,0.00,VWS V14.01,2013-12-06 14:38:00,
2013-12-06 09:43:00,73.6,65.2,30.09,SSW,202,5.8,5.8,75,0.00,,---,0.00,VWS V14.01,2013-12-06 14:43:00,
2013-12-06 09:48:00,74.1,63.7,30.09,SSW,202,3.6,3.6,70,0.00,,---,0.00,VWS V14.01,2013-12-06 14:48:00,
2013-12-06 09:53:00,74.5,63.2,30.09,SE,140,2.2,2.2,68,0.00,,---,0.00,VWS V14.01,2013-12-06 14:53:00,
2013-12-06 09:58:00,74.8,62.3,30.09,South,182,0.0,2.2,65,0.00,,---,0.00,VWS V14.01,2013-12-06 14:58:00,
2013-12-06 10:03:00,75.2,63.1,30.09,WSW,256,4.0,6.3,66,0.00,,---,0.00,VWS V14.01,2013-12-06 15:03:00,
2013-12-06 10:08:00,75.7,62.3,30.09,West,269,3.1,3.1,63,0.00,,---,0.00,VWS V14.01,2013-12-06 15:08:00,
2013-12-06 10:13:00,76.5,62.9,30.09,SSE,164,2.7,2.7,63,0.00,,---,0.00,VWS V14.01,2013-12-06 15:13:00,
2013-12-06 10:18:00,77.0,61.1,30.09,SSW,206,5.8,8.3,58,0.00,,---,0.00,VWS V14.01,2013-12-06 15:18:00,
2013-12-06 10:23:00,77.0,59.1,30.09,WSW,245,3.1,4.9,54,0.00,,---,0.00,VWS V14.01,2013-12-06 15:23:00,
2013-12-06 10:28:00,77.0,58.6,30.09,SSW,197,6.3,6.3,53,0.00,,---,0.00,VWS V14.01,2013-12-06 15:28:00,
2013-12-06 10:33:00,77.4,58.9,30.09,East,87,2.2,3.6,53,0.00,,---,0.00,VWS V14.01,2013-12-06 15:33:00,
2013-12-06 10:38:00,77.5,60.6,30.09,WSW,249,5.8,5.8,56,0.00,,---,0.00,VWS V14.01,2013-12-06 15:38:00,
2013-12-06 10:43:00,77.4,57.3,30.09,SSW,212,7.2,7.2,50,0.00,,---,0.00,VWS V14.01,2013-12-06 15:43:00,
2013-12-06 10:48:00,77.7,58.2,30.09,West,259,6.3,6.3,51,0.00,,---,0.00,VWS V14.01,2013-12-06 15:48:00,
2013-12-06 10:53:00,77.9,58.3,30.09,SSW,192,4.0,5.8,51,0.00,,---,0.00,VWS V14.01,2013-12-06 15:53:00,
2013-12-06 10:58:00,78.1,58.0,30.09,West,264,0.0,0.0,50,0.00,,---,0.00,VWS V14.01,2013-12-06 15:58:00,
2013-12-06 11:03:00,78.3,57.0,30.09,WSW,253,4.9,5.4,48,0.00,,---,0.00,VWS V14.01,2013-12-06 16:03:00,
2013-12-06 11:08:00,78.4,58.3,30.09,SSE,159,2.7,3.6,50,0.00,,---,0.00,VWS V14.01,2013-12-06 16:08:00,
2013-12-06 11:13:00,78.8,56.3,30.09,SW,226,3.6,3.6,46,0.00,,---,0.00,VWS V14.01,2013-12-06 16:13:00,
2013-12-06 11:18:00,79.0,55.2,30.06,SE,142,5.4,5.4,44,0.00,,---,0.00,VWS V14.01,2013-12-06 16:18:00,
2013-12-06 11:23:00,79.3,58.0,30.06,ESE,114,5.4,5.4,48,0.00,,---,0.00,VWS V14.01,2013-12-06 16:23:00,
2013-12-06 11:28:00,79.5,59.3,30.06,SSE,154,5.4,5.4,50,0.00,,---,0.00,VWS V14.01,2013-12-06 16:28:00,
2013-12-06 11:33:00,79.5,55.7,30.09,SW,225,4.0,4.0,44,0.00,,---,0.00,VWS V14.01,2013-12-06 16:33:00,
2013-12-06 11:38:00,80.1,57.4,30.09,ESE,113,2.7,5.8,46,0.00,,---,0.00,VWS V14.01,2013-12-06 16:38:00,
2013-12-06 11:43:00,80.1,55.6,30.09,SE,127,4.9,6.3,43,0.00,,---,0.00,VWS V14.01,2013-12-06 16:43:00,
2013-12-06 11:48:00,80.2,55.7,30.06,South,184,4.0,4.0,43,0.00,,---,0.00,VWS V14.01,2013-12-06 16:48:00,
2013-12-06 11:53:00,80.6,56.1,30.06,ESE,120,5.4,5.4,43,0.00,,---,0.00,VWS V14.01,2013-12-06 16:53:00,
2013-12-06 11:58:00,80.6,54.8,30.06,ENE,62,7.2,7.2,41,0.00,,---,0.00,VWS V14.01,2013-12-06 16:58:00,
2013-12-06 12:03:00,81.0,54.4,30.06,West,269,4.9,4.9,40,0.00,,---,0.00,VWS V14.01,2013-12-06 17:03:00,
2013-12-06 12:08:00,81.3,56.1,30.06,SW,228,2.7,4.0,42,0.00,,---,0.00,VWS V14.01,2013-12-06 17:08:00,
2013-12-06 12:13:00,81.3,54.7,30.06,SSW,194,4.0,6.3,40,0.00,,---,0.00,VWS V14.01,2013-12-06 17:13:00,
2013-12-06 12:18:00,81.5,54.9,30.06,SSW,212,3.6,6.7,40,0.00,,---,0.00,VWS V14.01,2013-12-06 17:18:00,
2013-12-06 12:23:00,81.7,55.0,30.06,South,176,5.4,5.4,40,0.00,,---,0.00,VWS V14.01,2013-12-06 17:23:00,
2013-12-06 12:28:00,82.0,55.4,30.06,SSE,160,5.4,5.8,40,0.00,,---,0.00,VWS V14.01,2013-12-06 17:28:00,
2013-12-06 12:33:00,82.0,55.4,30.06,SSW,194,2.2,4.0,40,0.00,,---,0.00,VWS V14.01,2013-12-06 17:33:00,
2013-12-06 12:38:00,82.2,55.5,30.06,SSW,212,2.7,4.9,40,0.00,,---,0.00,VWS V14.01,2013-12-06 17:38:00,
2013-12-06 12:43:00,82.4,55.0,30.06,South,179,0.0,2.2,39,0.00,,---,0.00,VWS V14.01,2013-12-06 17:43:00,
2013-12-06 12:48:00,82.6,55.8,30.06,South,173,7.6,8.1,40,0.00,,---,0.00,VWS V14.01,2013-12-06 17:48:00,
2013-12-06 12:53:00,82.4,55.0,30.06,SE,125,4.0,4.9,39,0.00,,---,0.00,VWS V14.01,2013-12-06 17:53:00,
2013-12-06 12:58:00,82.4,55.0,30.06,SE,142,3.1,3.1,39,0.00,,---,0.00,VWS V14.01,2013-12-06 17:58:00,
2013-12-06 13:03:00,82.6,55.1,30.06,SSW,205,4.0,5.8,39,0.00,,---,0.00,VWS V14.01,2013-12-06 18:03:00,
2013-12-06 13:08:00,82.8,55.3,30.06,SW,221,2.7,3.6,39,0.00,,---,0.00,VWS V14.01,2013-12-06 18:08:00,
2013-12-06 13:13:00,83.1,55.6,30.06,WSW,243,5.4,5.4,39,0.00,,---,0.00,VWS V14.01,2013-12-06 18:13:00,
2013-12-06 13:18:00,83.1,55.6,30.06,SSE,162,3.1,6.3,39,0.00,,---,0.00,VWS V14.01,2013-12-06 18:18:00,
2013-12-06 13:23:00,82.9,55.5,30.06,South,183,3.1,3.1,39,0.00,,---,0.00,VWS V14.01,2013-12-06 18:23:00,
2013-12-06 13:28:00,82.6,55.1,30.06,South,191,6.7,6.7,39,0.00,,---,0.00,VWS V14.01,2013-12-06 18:28:00,
2013-12-06 13:33:00,82.2,55.5,30.06,SSW,197,3.1,3.1,40,0.00,,---,0.00,VWS V14.01,2013-12-06 18:33:00,
2013-12-06 13:38:00,81.9,55.2,30.06,South,180,6.3,6.3,40,0.00,,---,0.00,VWS V14.01,2013-12-06 18:38:00,
2013-12-06 13:43:00,82.0,55.4,30.06,SSW,212,4.0,4.9,40,0.00,,---,0.00,VWS V14.01,2013-12-06 18:43:00,
2013-12-06 13:48:00,82.4,55.0,30.06,SSW,199,2.7,3.6,39,0.00,,---,0.00,VWS V14.01,2013-12-06 18:48:00,
2013-12-06 13:53:00,82.2,55.5,30.06,WSW,242,4.0,4.0,40,0.00,,---,0.00,VWS V14.01,2013-12-06 18:53:00,
2013-12-06 13:58:00,82.6,55.1,30.06,SW,229,3.6,3.6,39,0.00,,---,0.00,VWS V14.01,2013-12-06 18:58:00,
2013-12-06 14:03:00,82.8,55.3,30.06,SE,141,4.5,4.5,39,0.00,,---,0.00,VWS V14.01,2013-12-06 19:03:00,
2013-12-06 14:08:00,82.8,55.3,30.06,South,177,3.1,4.0,39,0.00,,---,0.00,VWS V14.01,2013-12-06 19:08:00,
2013-12-06 14:13:00,82.9,55.5,30.06,ESE,122,0.0,0.0,39,0.00,,---,0.00,VWS V14.01,2013-12-06 19:13:00,
2013-12-06 14:18:00,82.9,55.5,30.06,SSE,151,4.9,5.8,39,0.00,,---,0.00,VWS V14.01,2013-12-06 19:18:00,
2013-12-06 14:23:00,82.8,55.3,30.06,South,191,2.7,2.7,39,0.00,,---,0.00,VWS V14.01,2013-12-06 19:23:00,
2013-12-06 14:28:00,83.1,55.6,30.06,SSW,199,0.0,0.0,39,0.00,,---,0.00,VWS V14.01,2013-12-06 19:28:00,
2013-12-06 14:33:00,83.5,55.9,30.06,SSW,199,2.2,4.0,39,0.00,,---,0.00,VWS V14.01,2013-12-06 19:33:00,
2013-12-06 14:38:00,83.8,56.3,30.06,SSW,192,2.7,2.7,39,0.00,,---,0.00,VWS V14.01,2013-12-06 19:38:00,
2013-12-06 14:43:00,83.8,56.3,30.06,SW,217,3.1,3.1,39,0.00,,---,0.00,VWS V14.01,2013-12-06 19:43:00,
2013-12-06 14:48:00,83.7,56.1,30.06,SW,234,2.7,4.9,39,0.00,,---,0.00,VWS V14.01,2013-12-06 19:48:00,
2013-12-06 14:53:00,83.5,55.9,30.06,SW,236,2.2,2.7,39,0.00,,---,0.00,VWS V14.01,2013-12-06 19:53:00,
2013-12-06 14:58:00,83.5,55.9,30.06,South,175,4.0,4.0,39,0.00,,---,0.00,VWS V14.01,2013-12-06 19:58:00,
2013-12-06 15:03:00,83.1,55.6,30.06,South,177,2.7,3.1,39,0.00,,---,0.00,VWS V14.01,2013-12-06 20:03:00,
2013-12-06 15:08:00,82.8,55.3,30.06,South,185,3.1,3.6,39,0.00,,---,0.00,VWS V14.01,2013-12-06 20:08:00,
2013-12-06 15:13:00,82.9,55.5,30.06,South,177,2.7,2.7,39,0.00,,---,0.00,VWS V14.01,2013-12-06 20:13:00,
2013-12-06 15:18:00,83.3,55.8,30.06,SW,224,3.6,3.6,39,0.00,,---,0.00,VWS V14.01,2013-12-06 20:18:00,
2013-12-06 15:23:00,83.5,55.9,30.06,SSW,200,2.7,3.6,39,0.00,,---,0.00,VWS V14.01,2013-12-06 20:23:00,
2013-12-06 15:28:00,83.7,56.1,30.06,SW,214,2.7,3.1,39,0.00,,---,0.00,VWS V14.01,2013-12-06 20:28:00,
2013-12-06 15:33:00,83.7,56.1,30.06,SW,225,2.7,2.7,39,0.00,,---,0.00,VWS V14.01,2013-12-06 20:33:00,
2013-12-06 15:38:00,83.7,56.1,30.06,SW,233,2.7,2.7,39,0.00,,---,0.00,VWS V14.01,2013-12-06 20:38:00,
2013-12-06 15:43:00,83.7,56.1,30.06,WSW,240,0.0,0.0,39,0.00,,---,0.00,VWS V14.01,2013-12-06 20:43:00,
2013-12-06 15:48:00,83.5,55.9,30.06,SSW,194,3.1,3.1,39,0.00,,---,0.00,VWS V14.01,2013-12-06 20:48:00,
2013-12-06 15:53:00,83.3,55.8,30.06,SE,145,0.0,4.0,39,0.00,,---,0.00,VWS V14.01,2013-12-06 20:53:00,
2013-12-06 15:58:00,83.1,55.6,30.06,SSE,156,0.0,0.0,39,0.00,,---,0.00,VWS V14.01,2013-12-06 20:58:00,
2013-12-06 16:03:00,82.6,55.1,30.06,SE,142,0.0,0.0,39,0.00,,---,0.00,VWS V14.01,2013-12-06 21:03:00,
2013-12-06 16:08:00,82.2,55.5,30.06,West,260,0.0,2.2,40,0.00,,---,0.00,VWS V14.01,2013-12-06 21:08:00,
2013-12-06 16:13:00,81.9,55.2,30.06,West,260,0.0,0.0,40,0.00,,---,0.00,VWS V14.01,2013-12-06 21:13:00,
2013-12-06 16:18:00,81.5,54.9,30.06,West,260,0.0,0.0,40,0.00,,---,0.00,VWS V14.01,2013-12-06 21:18:00,
2013-12-06 16:23:00,81.5,54.9,30.06,SSE,149,0.0,0.0,40,0.00,,---,0.00,VWS V14.01,2013-12-06 21:23:00,
2013-12-06 16:28:00,81.5,54.9,30.06,SW,222,0.0,0.0,40,0.00,,---,0.00,VWS V14.01,2013-12-06 21:28:00,
2013-12-06 16:33:00,81.3,54.7,30.06,SSW,200,0.0,0.0,40,0.00,,---,0.00,VWS V14.01,2013-12-06 21:33:00,
2013-12-06 16:38:00,81.0,54.4,30.06,SE,141,0.0,0.0,40,0.00,,---,0.00,VWS V14.01,2013-12-06 21:38:00,
2013-12-06 16:43:00,80.6,54.1,30.06,SE,141,0.0,0.0,40,0.00,,---,0.00,VWS V14.01,2013-12-06 21:43:00,
2013-12-06 16:48:00,80.2,53.8,30.09,SE,141,0.0,0.0,40,0.00,,---,0.00,VWS V14.01,2013-12-06 21:48:00,
2013-12-06 16:53:00,79.7,53.3,30.09,SE,141,0.0,0.0,40,0.00,,---,0.00,VWS V14.01,2013-12-06 21:53:00,
2013-12-06 16:58:00,79.3,53.0,30.09,SE,141,0.0,0.0,40,0.00,,---,0.00,VWS V14.01,2013-12-06 21:58:00,
2013-12-06 17:03:00,79.3,53.0,30.09,SE,141,0.0,0.0,40,0.00,,---,0.00,VWS V14.01,2013-12-06 22:03:00,
2013-12-06 17:08:00,78.4,52.8,30.09,SE,141,0.0,0.0,41,0.00,,---,0.00,VWS V14.01,2013-12-06 22:08:00,
2013-12-06 17:13:00,77.9,52.3,30.09,SE,141,0.0,0.0,41,0.00,,---,0.00,VWS V14.01,2013-12-06 22:13:00,
2013-12-06 17:18:00,77.2,51.7,30.09,SE,141,0.0,0.0,41,0.00,,---,0.00,VWS V14.01,2013-12-06 22:18:00,
2013-12-06 17:23:00,76.5,51.0,30.09,SE,141,0.0,0.0,41,0.00,,---,0.00,VWS V14.01,2013-12-06 22:23:00,
2013-12-06 17:28:00,75.9,50.5,30.09,SE,141,0.0,0.0,41,0.00,,---,0.00,VWS V14.01,2013-12-06 22:28:00,
2013-12-06 17:33:00,75.2,50.6,30.09,SE,141,0.0,0.0,42,0.00,,---,0.00,VWS V14.01,2013-12-06 22:33:00,
2013-12-06 17:38:00,74.7,50.1,30.09,SE,141,0.0,0.0,42,0.00,,---,0.00,VWS V14.01,2013-12-06 22:38:00,
2013-12-06 17:43:00,74.1,49.6,30.09,SE,141,0.0,0.0,42,0.00,,---,0.00,VWS V14.01,2013-12-06 22:43:00,
2013-12-06 17:48:00,73.6,49.1,30.09,SE,141,0.0,0.0,42,0.00,,---,0.00,VWS V14.01,2013-12-06 22:48:00,
2013-12-06 17:53:00,73.2,49.4,30.09,SE,141,0.0,0.0,43,0.00,,---,0.00,VWS V14.01,2013-12-06 22:53:00,
2013-12-06 17:58:00,72.7,48.9,30.09,SE,141,0.0,0.0,43,0.00,,---,0.00,VWS V14.01,2013-12-06 22:58:00,
2013-12-06 18:04:00,72.3,48.6,30.09,SE,141,0.0,0.0,43,0.00,,---,0.00,VWS V14.01,2013-12-06 23:04:00,
2013-12-06 18:09:00,72.0,48.3,30.09,SE,141,0.0,0.0,43,0.00,,---,0.00,VWS V14.01,2013-12-06 23:09:00,
2013-12-06 18:14:00,71.6,48.6,30.09,SE,141,0.0,0.0,44,0.00,,---,0.00,VWS V14.01,2013-12-06 23:14:00,
2013-12-06 18:19:00,71.2,48.2,30.09,SE,141,0.0,0.0,44,0.00,,---,0.00,VWS V14.01,2013-12-06 23:19:00,
2013-12-06 18:24:00,70.9,47.9,30.09,SE,141,0.0,0.0,44,0.00,,---,0.00,VWS V14.01,2013-12-06 23:24:00,
2013-12-06 18:29:00,70.5,48.2,30.09,SE,141,0.0,0.0,45,0.00,,---,0.00,VWS V14.01,2013-12-06 23:29:00,
2013-12-06 18:34:00,70.3,48.0,30.09,SE,141,0.0,0.0,45,0.00,,---,0.00,VWS V14.01,2013-12-06 23:34:00,
2013-12-06 18:39:00,70.2,49.0,30.09,WSW,240,0.0,0.0,47,0.00,,---,0.00,VWS V14.01,2013-12-06 23:39:00,
2013-12-06 18:44:00,70.0,48.3,30.09,WSW,240,0.0,0.0,46,0.00,,---,0.00,VWS V14.01,2013-12-06 23:44:00,
2013-12-06 18:49:00,69.6,48.0,30.09,WSW,240,0.0,0.0,46,0.00,,---,0.00,VWS V14.01,2013-12-06 23:49:00,
2013-12-06 18:54:00,69.6,48.5,30.09,WSW,240,0.0,0.0,47,0.00,,---,0.00,VWS V14.01,2013-12-06 23:54:00,
2013-12-06 18:59:00,69.4,48.3,30.09,WSW,240,0.0,0.0,47,0.00,,---,0.00,VWS V14.01,2013-12-06 23:59:00,
2013-12-06 19:04:00,69.3,48.8,30.09,WSW,240,0.0,0.0,48,0.00,,---,0.00,VWS V14.01,2013-12-07 00:04:00,
2013-12-06 19:09:00,69.1,48.6,30.09,WSW,240,0.0,0.0,48,0.00,,---,0.00,VWS V14.01,2013-12-07 00:09:00,
2013-12-06 19:14:00,68.9,48.4,30.09,WSW,240,0.0,0.0,48,0.00,,---,0.00,VWS V14.01,2013-12-07 00:14:00,
2013-12-06 19:19:00,68.7,48.3,30.12,WSW,240,0.0,0.0,48,0.00,,---,0.00,VWS V14.01,2013-12-07 00:19:00,
2013-12-06 19:24:00,68.5,48.6,30.12,WSW,240,0.0,0.0,49,0.00,,---,0.00,VWS V14.01,2013-12-07 00:24:00,
2013-12-06 19:29:00,68.4,48.5,30.12,WSW,240,0.0,0.0,49,0.00,,---,0.00,VWS V14.01,2013-12-07 00:29:00,
2013-12-06 19:34:00,68.2,48.3,30.12,WSW,240,0.0,0.0,49,0.00,,---,0.00,VWS V14.01,2013-12-07 00:34:00,
2013-12-06 19:39:00,68.0,48.7,30.12,WSW,240,0.0,0.0,50,0.00,,---,0.00,VWS V14.01,2013-12-07 00:39:00,
2013-12-06 19:44:00,67.8,48.5,30.12,WSW,240,0.0,0.0,50,0.00,,---,0.00,VWS V14.01,2013-12-07 00:44:00,
2013-12-06 19:49:00,67.6,48.9,30.12,WSW,240,0.0,0.0,51,0.00,,---,0.00,VWS V14.01,2013-12-07 00:49:00,
2013-12-06 19:54:00,67.5,48.7,30.12,WSW,240,0.0,0.0,51,0.00,,---,0.00,VWS V14.01,2013-12-07 00:54:00,
2013-12-06 19:59:00,67.3,48.5,30.12,WSW,240,0.0,0.0,51,0.00,,---,0.00,VWS V14.01,2013-12-07 00:59:00,
2013-12-06 20:04:00,67.3,48.5,30.12,WSW,240,0.0,0.0,51,0.00,,---,0.00,VWS V14.01,2013-12-07 01:04:00,
2013-12-06 20:09:00,67.1,48.9,30.12,WSW,240,0.0,0.0,52,0.00,,---,0.00,VWS V14.01,2013-12-07 01:09:00,
2013-12-06 20:14:00,66.9,48.7,30.12,WSW,240,0.0,0.0,52,0.00,,---,0.00,VWS V14.01,2013-12-07 01:14:00,
2013-12-06 20:19:00,66.7,48.6,30.12,WSW,240,0.0,0.0,52,0.00,,---,0.00,VWS V14.01,2013-12-07 01:19:00,
2013-12-06 20:24:00,66.6,48.9,30.12,WSW,240,0.0,0.0,53,0.00,,---,0.00,VWS V14.01,2013-12-07 01:24:00,
2013-12-06 20:29:00,66.6,48.9,30.12,WSW,240,0.0,0.0,53,0.00,,---,0.00,VWS V14.01,2013-12-07 01:29:00,
2013-12-06 20:34:00,66.4,48.8,30.12,WSW,240,0.0,0.0,53,0.00,,---,0.00,VWS V14.01,2013-12-07 01:34:00,
2013-12-06 20:39:00,66.2,48.6,30.12,WSW,240,0.0,0.0,53,0.00,,---,0.00,VWS V14.01,2013-12-07 01:39:00,
2013-12-06 20:44:00,66.2,48.6,30.12,WSW,240,0.0,0.0,53,0.00,,---,0.00,VWS V14.01,2013-12-07 01:44:00,
2013-12-06 20:49:00,66.0,48.4,30.12,WSW,240,0.0,0.0,53,0.00,,---,0.00,VWS V14.01,2013-12-07 01:49:00,
2013-12-06 20:54:00,65.8,48.2,30.12,WSW,240,0.0,0.0,53,0.00,,---,0.00,VWS V14.01,2013-12-07 01:54:00,
2013-12-06 20:59:00,65.8,48.2,30.12,WSW,240,0.0,0.0,53,0.00,,---,0.00,VWS V14.01,2013-12-07 01:59:00,
2013-12-06 21:04:00,65.7,48.6,30.09,WSW,240,0.0,0.0,54,0.00,,---,0.00,VWS V14.01,2013-12-07 02:04:00,
2013-12-06 21:09:00,65.7,48.6,30.09,WSW,240,0.0,0.0,54,0.00,,---,0.00,VWS V14.01,2013-12-07 02:09:00,
2013-12-06 21:14:00,65.5,48.4,30.09,WSW,240,0.0,0.0,54,0.00,,---,0.00,VWS V14.01,2013-12-07 02:14:00,
2013-12-06 21:19:00,65.5,48.4,30.12,WSW,240,0.0,0.0,54,0.00,,---,0.00,VWS V14.01,2013-12-07 02:19:00,
2013-12-06 21:24:00,65.3,48.2,30.12,WSW,240,0.0,0.0,54,0.00,,---,0.00,VWS V14.01,2013-12-07 02:24:00,
2013-12-06 21:29:00,65.1,48.1,30.12,WSW,240,0.0,0.0,54,0.00,,---,0.00,VWS V14.01,2013-12-07 02:29:00,
2013-12-06 21:34:00,65.1,48.1,30.12,WSW,240,0.0,0.0,54,0.00,,---,0.00,VWS V14.01,2013-12-07 02:34:00,
2013-12-06 21:39:00,64.9,47.9,30.12,WSW,240,0.0,0.0,54,0.00,,---,0.00,VWS V14.01,2013-12-07 02:39:00,
2013-12-06 21:44:00,64.8,47.8,30.12,WSW,240,0.0,0.0,54,0.00,,---,0.00,VWS V14.01,2013-12-07 02:44:00,
2013-12-06 21:49:00,64.8,47.8,30.12,WSW,240,0.0,0.0,54,0.00,,---,0.00,VWS V14.01,2013-12-07 02:49:00,
2013-12-06 21:54:00,64.6,47.6,30.12,WSW,240,0.0,0.0,54,0.00,,---,0.00,VWS V14.01,2013-12-07 02:54:00,
2013-12-06 21:59:00,64.6,47.6,30.12,WSW,240,0.0,0.0,54,0.00,,---,0.00,VWS V14.01,2013-12-07 02:59:00,
2013-12-06 22:04:00,64.4,47.4,30.12,WSW,240,0.0,0.0,54,0.00,,---,0.00,VWS V14.01,2013-12-07 03:04:00,
2013-12-06 22:09:00,64.4,47.9,30.12,WSW,240,0.0,0.0,55,0.00,,---,0.00,VWS V14.01,2013-12-07 03:09:00,
2013-12-06 22:14:00,64.2,47.7,30.12,WSW,240,0.0,0.0,55,0.00,,---,0.00,VWS V14.01,2013-12-07 03:14:00,
2013-12-06 22:19:00,64.2,47.7,30.12,WSW,240,0.0,0.0,55,0.00,,---,0.00,VWS V14.01,2013-12-07 03:19:00,
2013-12-06 22:24:00,64.0,47.6,30.12,WSW,240,0.0,0.0,55,0.00,,---,0.00,VWS V14.01,2013-12-07 03:24:00,
2013-12-06 22:29:00,64.0,47.6,30.12,WSW,240,0.0,0.0,55,0.00,,---,0.00,VWS V14.01,2013-12-07 03:29:00,
2013-12-06 22:34:00,63.9,47.4,30.12,WSW,240,0.0,0.0,55,0.00,,---,0.00,VWS V14.01,2013-12-07 03:34:00,
2013-12-06 22:39:00,63.9,47.4,30.12,WSW,240,0.0,0.0,55,0.00,,---,0.00,VWS V14.01,2013-12-07 03:39:00,
2013-12-06 22:44:00,63.7,47.2,30.12,WSW,240,0.0,0.0,55,0.00,,---,0.00,VWS V14.01,2013-12-07 03:44:00,
2013-12-06 22:49:00,63.7,47.7,30.12,WSW,240,0.0,0.0,56,0.00,,---,0.00,VWS V14.01,2013-12-07 03:49:00,
2013-12-06 22:54:00,63.7,47.7,30.12,WSW,240,0.0,0.0,56,0.00,,---,0.00,VWS V14.01,2013-12-07 03:54:00,
2013-12-06 22:59:00,63.5,47.5,30.12,WSW,240,0.0,0.0,56,0.00,,---,0.00,VWS V14.01,2013-12-07 03:59:00,
2013-12-06 23:04:00,63.3,47.4,30.12,WSW,240,0.0,0.0,56,0.00,,---,0.00,VWS V14.01,2013-12-07 04:04:00,
2013-12-06 23:09:00,63.3,47.4,30.12,WSW,240,0.0,0.0,56,0.00,,---,0.00,VWS V14.01,2013-12-07 04:09:00,
2013-12-06 23:14:00,63.3,47.4,30.12,WSW,240,0.0,0.0,56,0.00,,---,0.00,VWS V14.01,2013-12-07 04:14:00,
2013-12-06 23:19:00,63.1,47.2,30.12,WSW,240,0.0,0.0,56,0.00,,---,0.00,VWS V14.01,2013-12-07 04:19:00,
2013-12-06 23:24:00,63.1,47.2,30.12,WSW,240,0.0,0.0,56,0.00,,---,0.00,VWS V14.01,2013-12-07 04:24:00,
2013-12-06 23:30:00,63.3,47.4,30.12,WSW,240,0.0,0.0,56,0.00,,---,0.00,VWS V14.01,2013-12-07 04:30:00,
2013-12-06 23:34:00,63.3,47.8,30.12,WSW,240,0.0,0.0,57,0.00,,---,0.00,VWS V14.01,2013-12-07 04:34:00,
2013-12-06 23:40:00,63.3,47.8,30.12,WSW,240,0.0,0.0,57,0.00,,---,0.00,VWS V14.01,2013-12-07 04:40:00,
2013-12-06 23:45:00,63.5,48.5,30.12,WSW,240,0.0,0.0,58,0.00,,---,0.00,VWS V14.01,2013-12-07 04:45:00,
2013-12-06 23:50:00,63.7,48.2,30.12,WSW,240,0.0,0.0,57,0.00,,---,0.00,VWS V14.01,2013-12-07 04:50:00,
2013-12-06 23:55:00,63.7,48.2,30.12,WSW,240,0.0,0.0,57,0.00,,---,0.00,VWS V14.01,2013-12-07 04:55:00,